Las Americas, Dominican Republic

3:13 PM AST on September 03, 2015 (GMT -0400)
Las Americas International | | Change Station
CLOSE
Current Station
Airport
Location: Las Americas,
Elevation: 59 ft
Nearby Weather Stations

Elev 59 ft 18.43 °N, 69.67 °W | Updated 13 minutes ago

Partly Cloudy
Partly Cloudy
90 °F
Feels Like 100 °F
N
7
Wind Variable Wind from South

Today
High -- | Low -- °F
--% Chance of Precip.
Yesterday
High -- | Low -- °F
Precip. -- in
6:24 AM 6:51 PM
Waning Gibbous, 67% visible
Pressure 29.92 in
Visibility 6.2 miles
Clouds Few 2200 ft
Few 2300 ft
Heat Index 100 °F
Dew Point 75 °F
Humidity 62%
Rainfall 0.00 in
Snow Depth Not available.
UV 12 out of 12
Pollen Not available.
Air Quality Not available.
Flu Activity Not available.
METAR MDSD 031900Z 19006KT 9999 FEW022CB FEW023 32/24 Q1013 CB/E/NW
Pressure 29.92 in
Visibility 6.2 miles
Clouds Few 2200 ft
Few 2300 ft
Heat Index 100 °F
Dew Point 75 °F
Humidity 62%
Rainfall 0.00 in
Snow Depth Not available.
UV 12 out of 12
Pollen Not available.
Air Quality Not available.
Flu Activity Not available.
METAR MDSD 031900Z 19006KT 9999 FEW022CB FEW023 32/24 Q1013 CB/E/NW

10-Day Weather Forecast

×

Almanac

Astronomy

Sep. 03, 2015 Rise Set
Actual Time
Civil Twilight
Nautical Twilight
Astronomical Twilight
Moon
Length of Visible Light
Length of Day
Tomorrow will be .
, % of the Moon is Illuminated

Today's Extremes

Country Highs Country Lows

Community

WunderPhotos

Upload Photos

1,852,014 photos uploaded!

WunderBlogs® & News

Nearby

Air Quality

  Air Quality AQ Index Pollutant
Not available.

Snow Depth

Station Depth Elevation

Earthquake Activity

City Distance Mag. Time & Date
Minimum magnitude displayed is 2.5.

Coastal Water Temperatures

Place Temperature

Stations

Nearby Weather Stations

Station Location Temp. Windchill Dew Point Humidity Wind Precip. Elev Updated Type